createdAt,value
2019-05-18T00:00:28.319Z,75.12
2019-05-18T00:01:15.125Z,74.87
2019-05-18T00:02:15.109Z,75.01
2019-05-18T00:03:15.102Z,75.12
2019-05-18T00:04:15.102Z,75.70
2019-05-18T00:05:15.101Z,75.70
2019-05-18T00:06:15.061Z,75.90
2019-05-18T00:07:15.052Z,74.98
2019-05-18T00:08:15.041Z,75.18
2019-05-18T00:09:15.029Z,75.59
2019-05-18T00:10:15.057Z,74.87
2019-05-18T00:11:15.010Z,74.98
2019-05-18T00:12:14.990Z,74.77
2019-05-18T00:13:14.993Z,76.14
2019-05-18T00:14:14.974Z,75.42
2019-05-18T00:15:14.965Z,74.80
2019-05-18T00:16:14.998Z,74.50
2019-05-18T00:17:24.905Z,74.19
2019-05-18T00:18:15.944Z,75.63
2019-05-18T00:19:14.929Z,75.84
2019-05-18T00:20:14.909Z,75.67
2019-05-18T00:21:14.891Z,74.50
2019-05-18T00:22:14.929Z,74.91
2019-05-18T00:23:14.875Z,75.01
2019-05-18T00:24:14.861Z,73.88
2019-05-18T00:25:14.854Z,75.12
2019-05-18T00:26:14.840Z,75.63
2019-05-18T00:27:14.829Z,76.35
2019-05-18T00:28:14.841Z,76.28
2019-05-18T00:29:14.816Z,76.49
2019-05-18T00:30:14.796Z,76.35
2019-05-18T00:31:28.112Z,75.77
2019-05-18T00:32:14.781Z,75.25
2019-05-18T00:33:14.762Z,74.02
2019-05-18T00:34:14.762Z,72.78
2019-05-18T00:35:16.603Z,74.43
2019-05-18T00:36:14.745Z,74.95
2019-05-18T00:37:14.722Z,75.35
2019-05-18T00:38:14.765Z,75.25
2019-05-18T00:39:14.704Z,74.95
2019-05-18T00:40:14.683Z,75.35
2019-05-18T00:41:14.677Z,75.46
2019-05-18T00:42:14.673Z,75.15
2019-05-18T00:43:14.690Z,74.84
2019-05-18T00:44:14.806Z,75.25
2019-05-18T00:45:14.628Z,74.95
2019-05-18T00:46:14.620Z,74.33
2019-05-18T00:47:14.605Z,74.84
2019-05-18T00:48:14.597Z,75.05
2019-05-18T00:49:14.592Z,74.63
2019-05-18T00:50:14.571Z,74.36
2019-05-18T00:51:14.561Z,75.05
2019-05-18T00:52:14.546Z,75.05
2019-05-18T00:53:14.542Z,75.25
2019-05-18T00:54:14.535Z,75.56
2019-05-18T00:55:14.529Z,74.95
2019-05-18T00:56:14.507Z,74.84
2019-05-18T00:57:14.493Z,75.46
2019-05-18T00:58:14.481Z,75.67
2019-05-18T00:59:15.999Z,75.25
2019-05-18T01:00:14.467Z,75.12
2019-05-18T01:01:14.454Z,74.80
2019-05-18T01:02:27.732Z,75.67
2019-05-18T01:03:14.430Z,75.35
2019-05-18T01:04:14.480Z,75.22
2019-05-18T01:05:14.417Z,76.14
2019-05-18T01:06:14.412Z,75.87
2019-05-18T01:07:14.387Z,75.87
2019-05-18T01:08:14.374Z,74.50
2019-05-18T01:09:14.363Z,74.22
2019-05-18T01:10:14.357Z,74.53
2019-05-18T01:11:14.388Z,75.15
2019-05-18T01:12:14.335Z,74.84
2019-05-18T01:13:14.328Z,74.95
2019-05-18T01:14:14.306Z,75.15
2019-05-18T01:15:14.301Z,74.95
2019-05-18T01:16:14.291Z,74.95
2019-05-18T01:17:14.316Z,74.22
2019-05-18T01:18:14.269Z,75.25
2019-05-18T01:19:14.258Z,75.15
2019-05-18T01:20:14.252Z,74.95
2019-05-18T01:21:14.232Z,74.63
2019-05-18T01:22:14.224Z,74.53
2019-05-18T01:23:14.253Z,75.56
2019-05-18T01:24:14.206Z,75.15
2019-05-18T01:25:14.193Z,75.35
2019-05-18T01:26:14.174Z,75.56
2019-05-18T01:27:14.174Z,75.25
2019-05-18T01:28:14.159Z,75.56
2019-05-18T01:29:14.160Z,75.46
2019-05-18T01:30:14.139Z,75.25
2019-05-18T01:31:14.122Z,75.15
2019-05-18T01:32:14.129Z,74.63
2019-05-18T01:33:26.862Z,74.12
2019-05-18T01:34:14.093Z,74.12
2019-05-18T01:35:14.082Z,75.15
2019-05-18T01:36:14.068Z,75.08
2019-05-18T01:37:14.060Z,75.56
2019-05-18T01:38:14.051Z,75.25
2019-05-18T01:39:14.054Z,75.15
2019-05-18T01:40:14.029Z,76.18
2019-05-18T01:41:14.016Z,76.70
2019-05-18T01:42:14.001Z,74.63
2019-05-18T01:43:13.999Z,75.35
2019-05-18T01:44:13.983Z,75.25
2019-05-18T01:45:17.312Z,75.46
2019-05-18T01:46:13.956Z,75.25
2019-05-18T01:47:13.949Z,75.35
2019-05-18T01:48:14.677Z,76.28
2019-05-18T01:49:13.928Z,75.35
2019-05-18T01:50:13.920Z,75.22
2019-05-18T01:51:13.911Z,75.73
2019-05-18T01:52:13.894Z,75.56
2019-05-18T01:53:13.941Z,75.46
2019-05-18T01:54:13.972Z,74.60
2019-05-18T01:55:13.869Z,75.73
2019-05-18T01:56:13.859Z,75.63
2019-05-18T01:57:13.842Z,75.25
2019-05-18T01:58:13.832Z,75.32
2019-05-18T01:59:13.814Z,74.95
2019-05-18T02:00:13.817Z,75.42
2019-05-18T02:01:13.871Z,76.35
2019-05-18T02:02:13.783Z,77.38
2019-05-18T02:03:13.774Z,77.28
2019-05-18T02:04:26.574Z,76.97
2019-05-18T02:05:13.750Z,76.56
2019-05-18T02:06:13.762Z,76.35
2019-05-18T02:07:13.754Z,76.42
2019-05-18T02:08:13.756Z,76.35
2019-05-18T02:09:13.762Z,76.42
2019-05-18T02:10:13.692Z,75.59
2019-05-18T02:11:13.681Z,75.29
2019-05-18T02:12:13.742Z,75.08
2019-05-18T02:13:13.723Z,75.18
2019-05-18T02:14:13.745Z,75.67
2019-05-18T02:15:13.644Z,76.42
2019-05-18T02:16:13.653Z,76.18
2019-05-18T02:17:13.642Z,76.18
2019-05-18T02:18:26.929Z,75.25
2019-05-18T02:19:14.606Z,75.67
2019-05-18T02:20:13.636Z,76.38
2019-05-18T02:21:13.587Z,76.35
2019-05-18T02:22:13.600Z,75.76
2019-05-18T02:23:13.587Z,75.63
2019-05-18T02:24:13.578Z,75.52
2019-05-18T02:25:13.549Z,74.91
2019-05-18T02:26:13.652Z,75.32
2019-05-18T02:27:13.532Z,74.98
2019-05-18T02:28:13.519Z,75.18
2019-05-18T02:29:13.508Z,74.87
2019-05-18T02:30:17.227Z,74.87
2019-05-18T02:31:13.483Z,74.29
2019-05-18T02:32:13.451Z,72.27
2019-05-18T02:33:13.476Z,70.43
2019-05-18T02:34:13.440Z,69.01
2019-05-18T02:35:26.738Z,65.81
2019-05-18T02:36:13.406Z,63.58
2019-05-18T02:37:13.394Z,60.88
2019-05-18T02:38:13.392Z,59.98
2019-05-18T02:39:13.400Z,57.97
2019-05-18T02:40:13.364Z,56.79
2019-05-18T02:41:13.351Z,54.82
2019-05-18T02:42:13.340Z,53.25
2019-05-18T02:43:13.330Z,51.40
2019-05-18T02:44:13.326Z,50.74
2019-05-18T02:45:13.305Z,50.52
2019-05-18T02:46:13.298Z,49.08
2019-05-18T02:47:13.296Z,48.75
2019-05-18T02:48:13.273Z,48.83
2019-05-18T02:49:13.279Z,48.55
2019-05-18T02:50:13.255Z,49.16
2019-05-18T02:51:13.237Z,49.18
2019-05-18T02:52:13.227Z,48.33
2019-05-18T02:53:13.226Z,48.63
2019-05-18T02:54:13.206Z,48.21
2019-05-18T02:55:13.255Z,47.27
2019-05-18T02:56:13.183Z,46.55
2019-05-18T02:57:13.256Z,45.92
2019-05-18T02:58:13.166Z,45.42
2019-05-18T02:59:13.157Z,45.00
2019-05-18T03:00:13.160Z,45.09
2019-05-18T03:01:13.143Z,44.69
2019-05-18T03:02:13.185Z,44.04
2019-05-18T03:03:13.122Z,43.82
2019-05-18T03:04:13.103Z,43.22
2019-05-18T03:05:13.103Z,43.20
2019-05-18T03:06:24.903Z,42.92
2019-05-18T03:07:13.060Z,43.20
2019-05-18T03:08:13.047Z,42.97
2019-05-18T03:09:13.042Z,42.46
2019-05-18T03:10:13.026Z,41.83
2019-05-18T03:11:13.052Z,41.51
2019-05-18T03:12:13.009Z,41.49
2019-05-18T03:13:13.004Z,40.87
2019-05-18T03:14:12.992Z,40.97
2019-05-18T03:15:12.982Z,41.07
2019-05-18T03:16:12.969Z,39.65
2019-05-18T03:17:12.961Z,40.15
2019-05-18T03:18:12.952Z,40.87
2019-05-18T03:19:12.941Z,43.12
2019-05-18T03:20:12.954Z,43.66
2019-05-18T03:21:12.926Z,43.58
2019-05-18T03:22:12.925Z,42.44
2019-05-18T03:23:12.906Z,42.52
2019-05-18T03:24:12.883Z,41.38
2019-05-18T03:25:12.870Z,41.47
2019-05-18T03:26:12.864Z,41.88
2019-05-18T03:27:12.868Z,41.13
2019-05-18T03:28:12.925Z,40.52
2019-05-18T03:29:12.823Z,41.24
2019-05-18T03:30:12.817Z,41.25
2019-05-18T03:31:12.829Z,40.95
2019-05-18T03:32:12.816Z,41.24
2019-05-18T03:33:12.837Z,40.81
2019-05-18T03:34:12.786Z,41.09
2019-05-18T03:35:12.770Z,39.87
2019-05-18T03:36:12.756Z,39.06
2019-05-18T03:37:24.693Z,39.20
2019-05-18T03:38:12.770Z,39.28
2019-05-18T03:39:13.075Z,39.59
2019-05-18T03:40:12.721Z,41.21
2019-05-18T03:41:12.705Z,41.49
2019-05-18T03:42:12.800Z,42.99
2019-05-18T03:43:12.720Z,41.77
2019-05-18T03:44:12.722Z,40.45
2019-05-18T03:45:12.662Z,38.02
2019-05-18T03:46:12.657Z,36.09
2019-05-18T03:47:12.637Z,35.29
2019-05-18T03:48:12.630Z,34.89
2019-05-18T03:49:26.447Z,35.41
2019-05-18T03:50:13.651Z,34.00
2019-05-18T03:51:12.600Z,34.48
2019-05-18T03:52:12.594Z,34.20
2019-05-18T03:53:12.576Z,34.28
2019-05-18T03:54:12.559Z,34.39
2019-05-18T03:55:12.583Z,35.51
2019-05-18T03:56:12.554Z,34.81
2019-05-18T03:57:12.539Z,34.61
2019-05-18T03:58:12.540Z,34.20
2019-05-18T03:59:12.517Z,34.39
2019-05-18T04:00:12.553Z,34.91
2019-05-18T04:01:12.534Z,35.24
2019-05-18T04:02:12.490Z,34.94
2019-05-18T04:03:12.468Z,34.81
2019-05-18T04:04:12.459Z,34.48
2019-05-18T04:05:12.515Z,33.47
2019-05-18T04:06:12.475Z,33.45
2019-05-18T04:07:12.439Z,32.84
2019-05-18T04:08:27.896Z,32.51
2019-05-18T04:09:12.483Z,32.31
2019-05-18T04:10:12.627Z,32.28
2019-05-18T04:11:12.406Z,31.07
2019-05-18T04:12:12.389Z,31.27
2019-05-18T04:14:12.349Z,31.30
2019-05-18T04:15:12.340Z,32.12
2019-05-18T04:16:12.328Z,32.04
2019-05-18T04:17:12.330Z,32.23
2019-05-18T04:18:12.312Z,32.75
2019-05-18T04:19:12.305Z,33.07
2019-05-18T04:20:12.288Z,33.98
2019-05-18T04:21:12.282Z,33.98
2019-05-18T04:22:12.278Z,34.28
2019-05-18T04:23:12.299Z,33.55
2019-05-18T04:24:12.293Z,32.49
2019-05-18T04:25:12.245Z,31.90
2019-05-18T04:26:12.242Z,30.97
2019-05-18T04:27:12.223Z,31.58
2019-05-18T04:28:13.007Z,31.00
2019-05-18T04:29:12.203Z,31.40
2019-05-18T04:30:12.185Z,31.18
2019-05-18T04:31:12.180Z,30.89
2019-05-18T04:32:12.164Z,31.78
2019-05-18T04:33:12.172Z,31.81
2019-05-18T04:34:12.184Z,32.12
2019-05-18T04:35:12.132Z,32.54
2019-05-18T04:36:12.120Z,30.80
2019-05-18T04:37:12.122Z,30.47
2019-05-18T04:38:12.150Z,30.74
2019-05-18T04:39:12.101Z,30.35
2019-05-18T04:40:12.116Z,30.97
2019-05-18T04:41:12.080Z,30.79
2019-05-18T04:42:12.083Z,30.89
2019-05-18T04:43:12.049Z,30.72
2019-05-18T04:44:25.730Z,31.30
2019-05-18T04:45:12.044Z,31.48
2019-05-18T04:46:12.030Z,31.57
2019-05-18T04:47:12.012Z,30.56
2019-05-18T04:48:12.003Z,30.87
2019-05-18T04:49:11.999Z,30.35
2019-05-18T04:50:11.987Z,30.25
2019-05-18T04:51:11.972Z,30.68
2019-05-18T04:52:11.961Z,30.66
2019-05-18T04:53:11.943Z,30.90
2019-05-18T04:54:11.934Z,30.80
2019-05-18T04:55:11.974Z,30.87
2019-05-18T04:56:11.934Z,30.65
2019-05-18T04:57:11.902Z,30.94
2019-05-18T04:58:11.931Z,30.22
2019-05-18T04:59:11.897Z,28.99
2019-05-18T05:00:11.866Z,28.47
2019-05-18T05:01:11.916Z,28.37
2019-05-18T05:02:11.868Z,28.48
2019-05-18T05:03:11.857Z,28.69
2019-05-18T05:04:11.832Z,28.06
2019-05-18T05:05:11.818Z,27.83
2019-05-18T05:06:11.824Z,28.53
2019-05-18T05:07:11.845Z,27.53
2019-05-18T05:08:11.808Z,27.81
2019-05-18T05:09:11.782Z,27.53
2019-05-18T05:10:11.776Z,28.05
2019-05-18T05:11:11.784Z,28.27
2019-05-18T05:12:11.740Z,29.60
2019-05-18T05:13:11.739Z,30.13
2019-05-18T05:14:11.730Z,29.91
2019-05-18T05:15:24.273Z,28.79
2019-05-18T05:16:11.696Z,29.90
2019-05-18T05:17:11.734Z,28.88
2019-05-18T05:18:11.678Z,28.14
2019-05-18T05:19:11.669Z,28.78
2019-05-18T05:20:19.920Z,28.37
2019-05-18T05:21:12.645Z,28.47
2019-05-18T05:22:11.637Z,27.08
2019-05-18T05:23:11.634Z,28.39
2019-05-18T05:24:11.699Z,27.60
2019-05-18T05:25:11.613Z,28.08
2019-05-18T05:26:11.601Z,26.77
2019-05-18T05:27:11.600Z,26.46
2019-05-18T05:28:11.603Z,25.95
2019-05-18T05:29:11.578Z,25.82
2019-05-18T05:30:11.569Z,26.94
2019-05-18T05:31:11.553Z,26.84
2019-05-18T05:32:11.533Z,25.45
2019-05-18T05:33:11.528Z,26.76
2019-05-18T05:34:11.624Z,26.15
2019-05-18T05:35:11.501Z,26.75
2019-05-18T05:36:11.488Z,26.43
2019-05-18T05:37:11.478Z,26.06
2019-05-18T05:38:11.494Z,26.77
2019-05-18T05:39:11.464Z,26.57
2019-05-18T05:40:11.492Z,26.86
2019-05-18T05:41:16.556Z,26.36
2019-05-18T05:42:12.434Z,25.95
2019-05-18T05:43:11.423Z,25.71
2019-05-18T05:44:11.416Z,26.13
2019-05-18T05:45:11.473Z,26.35
2019-05-18T05:46:24.179Z,24.54
2019-05-18T05:47:11.375Z,23.94
2019-05-18T05:48:11.369Z,24.57
2019-05-18T05:49:11.403Z,24.88
2019-05-18T05:50:11.350Z,24.38
2019-05-18T05:51:18.329Z,23.70
2019-05-18T05:52:11.330Z,24.79
2019-05-18T05:53:11.317Z,23.68
2019-05-18T05:54:11.376Z,24.17
2019-05-18T05:55:11.309Z,23.55
2019-05-18T05:56:11.290Z,23.94
2019-05-18T05:57:11.277Z,23.43
2019-05-18T05:58:11.265Z,24.34
2019-05-18T05:59:11.254Z,23.69
2019-05-18T06:00:11.239Z,24.52
2019-05-18T06:01:11.253Z,25.95
2019-05-18T06:02:11.222Z,24.44
2019-05-18T06:03:11.218Z,24.41
2019-05-18T06:04:11.199Z,25.43
2019-05-18T06:05:11.240Z,25.71
2019-05-18T06:06:11.201Z,25.98
2019-05-18T06:07:11.180Z,25.16
2019-05-18T06:08:11.164Z,24.28
2019-05-18T06:09:11.153Z,24.50
2019-05-18T06:10:11.145Z,24.79
2019-05-18T06:11:11.135Z,25.91
2019-05-18T06:12:11.122Z,27.23
2019-05-18T06:13:11.113Z,27.66
2019-05-18T06:14:11.099Z,28.90
2019-05-18T06:15:11.147Z,29.93
2019-05-18T06:16:11.119Z,29.94
2019-05-18T06:17:11.065Z,30.76
2019-05-18T06:18:11.058Z,30.99
2019-05-18T06:19:11.053Z,31.92
2019-05-18T06:20:11.036Z,33.56
2019-05-18T06:21:11.027Z,34.59
2019-05-18T06:22:23.668Z,35.23
2019-05-18T06:23:11.003Z,34.83
2019-05-18T06:24:10.989Z,35.63
2019-05-18T06:25:10.985Z,35.41
2019-05-18T06:26:10.984Z,36.41
2019-05-18T06:27:10.964Z,34.93
2019-05-18T06:28:10.994Z,35.75
2019-05-18T06:29:10.944Z,36.44
2019-05-18T06:30:10.945Z,36.05
2019-05-18T06:31:10.923Z,36.55
2019-05-18T06:32:10.916Z,35.16
2019-05-18T06:33:10.912Z,34.84
2019-05-18T06:34:10.899Z,34.66
2019-05-18T06:35:10.885Z,35.68
2019-05-18T06:36:10.869Z,36.20
2019-05-18T06:37:10.902Z,36.00
2019-05-18T06:38:10.864Z,36.58
2019-05-18T06:39:10.875Z,35.98
2019-05-18T06:40:10.895Z,36.58
2019-05-18T06:41:10.822Z,36.46
2019-05-18T06:42:11.041Z,36.26
2019-05-18T06:43:17.777Z,35.86
2019-05-18T06:44:10.782Z,36.18
2019-05-18T06:45:10.779Z,36.16
2019-05-18T06:46:10.757Z,35.86
2019-05-18T06:47:10.749Z,35.36
2019-05-18T06:48:10.738Z,35.76
2019-05-18T06:49:10.729Z,36.68
2019-05-18T06:50:12.808Z,36.90
2019-05-18T06:51:10.711Z,37.60
2019-05-18T06:52:10.705Z,37.18
2019-05-18T06:53:10.688Z,37.50
2019-05-18T06:54:10.711Z,37.20
2019-05-18T06:55:10.659Z,37.32
2019-05-18T06:56:10.651Z,37.50
2019-05-18T06:57:10.649Z,37.90
2019-05-18T06:58:10.626Z,37.90
2019-05-18T06:59:10.617Z,37.70
2019-05-18T07:00:10.638Z,37.12
2019-05-18T07:01:10.592Z,37.42
2019-05-18T07:02:10.594Z,38.24
2019-05-18T07:03:10.567Z,38.26
2019-05-18T07:04:10.558Z,38.36
2019-05-18T07:05:10.564Z,38.38
2019-05-18T07:06:10.559Z,38.86
2019-05-18T07:07:10.535Z,39.06
2019-05-18T07:08:10.532Z,39.14
2019-05-18T07:09:14.123Z,38.32
2019-05-18T07:10:10.506Z,38.10
2019-05-18T07:11:10.547Z,38.31
2019-05-18T07:12:10.475Z,38.20
2019-05-18T07:13:10.466Z,38.42
2019-05-18T07:15:31.048Z,37.63
2019-05-18T07:16:31.037Z,38.64
2019-05-18T07:17:34.485Z,38.84
2019-05-18T07:18:31.016Z,38.54
2019-05-18T07:19:31.000Z,39.32
2019-05-18T07:20:30.992Z,39.14
2019-05-18T07:21:30.990Z,38.94
2019-05-18T07:22:30.971Z,38.88
2019-05-18T07:23:30.975Z,39.98
2019-05-18T07:24:30.946Z,39.58
2019-05-18T07:25:30.944Z,39.69
2019-05-18T07:26:30.932Z,39.78
2019-05-18T07:27:30.919Z,40.37
2019-05-18T07:28:30.932Z,39.26
2019-05-18T07:29:30.897Z,39.25
2019-05-18T07:30:30.878Z,38.34
2019-05-18T07:31:30.902Z,38.34
2019-05-18T07:32:30.860Z,38.34
2019-05-18T07:33:30.858Z,38.84
2019-05-18T07:34:30.867Z,38.16
2019-05-18T07:35:30.838Z,38.76
2019-05-18T07:36:30.825Z,38.07
2019-05-18T07:37:30.879Z,38.38
2019-05-18T07:38:30.795Z,38.76
2019-05-18T07:39:30.821Z,38.78
2019-05-18T07:40:30.778Z,39.36
2019-05-18T07:41:45.547Z,39.76
2019-05-18T07:42:31.756Z,37.76
2019-05-18T07:43:30.744Z,38.74
2019-05-18T07:44:30.730Z,39.75
2019-05-18T07:45:42.393Z,38.62
2019-05-18T07:46:30.711Z,37.90
2019-05-18T07:47:30.699Z,38.22
2019-05-18T07:48:30.692Z,38.00
2019-05-18T07:49:30.798Z,38.42
2019-05-18T07:50:30.677Z,38.31
2019-05-18T07:51:37.116Z,37.02
2019-05-18T07:52:31.644Z,36.93
2019-05-18T07:53:30.635Z,38.02
2019-05-18T07:54:30.666Z,37.62
2019-05-18T07:55:30.625Z,37.32
2019-05-18T07:56:30.853Z,38.12
2019-05-18T07:57:30.587Z,37.54
2019-05-18T07:58:30.609Z,38.02
2019-05-18T07:59:30.572Z,38.02
2019-05-18T08:00:30.573Z,38.20
2019-05-18T08:01:31.089Z,37.50
2019-05-18T08:02:30.539Z,37.60
2019-05-18T08:03:30.541Z,37.72
2019-05-18T08:04:30.514Z,37.40
2019-05-18T08:05:30.562Z,37.48
2019-05-18T08:06:30.533Z,37.30
2019-05-18T08:07:30.481Z,37.37
2019-05-18T08:08:30.469Z,36.76
2019-05-18T08:09:30.464Z,36.76
2019-05-18T08:10:30.449Z,36.85
2019-05-18T08:11:30.452Z,35.14
2019-05-18T08:12:30.430Z,35.56
2019-05-18T08:13:30.420Z,35.96
2019-05-18T08:14:30.419Z,35.08
2019-05-18T08:15:30.409Z,35.88
2019-05-18T08:16:42.393Z,36.18
2019-05-18T08:17:30.372Z,36.30
2019-05-18T08:18:30.364Z,36.52
2019-05-18T08:19:30.355Z,36.50
2019-05-18T08:20:30.344Z,36.50
2019-05-18T08:21:30.379Z,36.20
2019-05-18T08:22:30.363Z,35.98
2019-05-18T08:23:30.310Z,36.00
2019-05-18T08:24:30.295Z,36.90
2019-05-18T08:25:30.291Z,36.90
2019-05-18T08:26:30.316Z,36.72
2019-05-18T08:27:30.290Z,36.61
2019-05-18T08:28:30.257Z,36.21
2019-05-18T08:29:30.256Z,36.03
2019-05-18T08:30:30.237Z,36.72
2019-05-18T08:31:30.225Z,36.02
2019-05-18T08:32:30.255Z,36.50
2019-05-18T08:33:30.247Z,36.32
2019-05-18T08:34:30.211Z,35.91
2019-05-18T08:35:30.181Z,35.71
2019-05-18T08:36:30.173Z,36.21
2019-05-18T08:37:30.159Z,36.72
2019-05-18T08:38:30.185Z,35.88
2019-05-18T08:39:30.140Z,36.08
2019-05-18T08:40:30.138Z,35.60
2019-05-18T08:41:30.114Z,35.61
2019-05-18T08:42:30.099Z,35.61
2019-05-18T08:43:30.098Z,35.82
2019-05-18T08:44:30.127Z,35.60
2019-05-18T08:45:30.083Z,35.58
2019-05-18T08:46:30.080Z,35.19
2019-05-18T08:47:42.903Z,35.80
2019-05-18T08:48:30.040Z,36.00
2019-05-18T08:49:30.023Z,36.00
2019-05-18T08:50:30.023Z,35.89
2019-05-18T08:51:30.007Z,34.98
2019-05-18T08:52:29.999Z,34.88
2019-05-18T08:53:29.985Z,34.58
2019-05-18T08:54:30.011Z,35.28
2019-05-18T08:55:29.963Z,35.48
2019-05-18T08:56:29.966Z,35.38
2019-05-18T08:57:29.949Z,34.28
2019-05-18T08:58:29.934Z,34.17
2019-05-18T08:59:29.924Z,34.67
2019-05-18T09:00:29.918Z,34.69
2019-05-18T09:01:29.902Z,32.69
2019-05-18T09:02:29.890Z,34.51
2019-05-18T09:03:29.877Z,34.80
2019-05-18T09:04:29.872Z,33.19
2019-05-18T09:05:29.940Z,33.69
2019-05-18T09:06:29.843Z,34.08
2019-05-18T09:07:29.830Z,33.47
2019-05-18T09:08:29.825Z,34.06
2019-05-18T09:09:29.809Z,33.66
2019-05-18T09:10:29.801Z,33.56
2019-05-18T09:11:29.795Z,33.66
2019-05-18T09:12:29.781Z,33.16
2019-05-18T09:13:29.763Z,33.76
2019-05-18T09:14:29.753Z,33.46
2019-05-18T09:15:29.749Z,33.16
2019-05-18T09:16:29.782Z,32.97
2019-05-18T09:17:29.729Z,32.87
2019-05-18T09:18:42.474Z,33.07
2019-05-18T09:19:29.699Z,32.17
2019-05-18T09:20:29.694Z,32.67
2019-05-18T09:21:29.686Z,33.46
2019-05-18T09:22:29.673Z,33.16
2019-05-18T09:23:29.665Z,32.86
2019-05-18T09:24:29.647Z,33.06
2019-05-18T09:25:29.640Z,32.96
2019-05-18T09:26:29.651Z,33.16
2019-05-18T09:27:29.630Z,32.84
2019-05-18T09:28:29.618Z,33.34
2019-05-18T09:29:29.594Z,33.44
2019-05-18T09:30:29.582Z,33.46
2019-05-18T09:31:29.568Z,32.86
2019-05-18T09:32:29.562Z,34.78
2019-05-18T09:33:29.583Z,34.38
2019-05-18T09:34:29.553Z,35.58
2019-05-18T09:35:29.564Z,36.48
2019-05-18T09:36:29.526Z,34.67
2019-05-18T09:37:29.502Z,34.88
2019-05-18T09:38:32.976Z,35.58
2019-05-18T09:39:29.642Z,35.68
2019-05-18T09:40:29.471Z,35.66
2019-05-18T09:41:29.466Z,36.07
2019-05-18T09:42:29.459Z,33.96
2019-05-18T09:43:29.450Z,34.46
2019-05-18T09:44:29.428Z,33.26
2019-05-18T09:45:29.426Z,33.06
2019-05-18T09:46:29.414Z,34.66
2019-05-18T09:47:29.402Z,35.06
2019-05-18T09:48:29.384Z,34.64
2019-05-18T09:49:41.539Z,34.34
2019-05-18T09:50:29.364Z,32.94
2019-05-18T09:51:29.970Z,33.03
2019-05-18T09:52:44.015Z,32.93
2019-05-18T09:53:30.338Z,34.24
2019-05-18T09:54:29.323Z,32.96
2019-05-18T09:55:29.316Z,34.16
2019-05-18T09:56:29.314Z,34.36
2019-05-18T09:57:29.287Z,34.64
2019-05-18T09:58:29.277Z,34.36
2019-05-18T09:59:29.275Z,33.84
2019-05-18T10:00:37.033Z,32.84
2019-05-18T10:01:30.247Z,33.04
2019-05-18T10:02:29.243Z,33.86
2019-05-18T10:03:29.228Z,33.54
2019-05-18T10:04:29.254Z,33.04
2019-05-18T10:05:29.204Z,33.04
2019-05-18T10:06:31.437Z,34.53
2019-05-18T10:07:29.179Z,34.44
2019-05-18T10:08:29.164Z,33.66
2019-05-18T10:09:38.566Z,33.96
2019-05-18T10:10:30.168Z,34.66
2019-05-18T10:11:29.174Z,34.76
2019-05-18T10:12:29.148Z,34.26
2019-05-18T10:13:29.117Z,34.56
2019-05-18T10:14:29.107Z,34.64
2019-05-18T10:15:29.092Z,33.24
2019-05-18T10:16:29.131Z,32.94
2019-05-18T10:17:29.073Z,33.44
2019-05-18T10:18:29.065Z,33.64
2019-05-18T10:19:29.046Z,33.04
2019-05-18T10:20:41.239Z,32.54
2019-05-18T10:21:29.030Z,32.84
2019-05-18T10:22:29.074Z,33.34
2019-05-18T10:23:29.004Z,32.94
2019-05-18T10:24:28.994Z,33.66
2019-05-18T10:25:28.987Z,33.76
2019-05-18T10:26:28.973Z,34.36
2019-05-18T10:27:28.965Z,33.86
2019-05-18T10:28:28.967Z,33.06
2019-05-18T10:29:28.942Z,32.56
2019-05-18T10:30:28.927Z,32.46
2019-05-18T10:31:30.127Z,32.64
2019-05-18T10:32:29.158Z,33.03
2019-05-18T10:33:28.898Z,32.23
2019-05-18T10:34:28.890Z,31.23
2019-05-18T10:35:28.889Z,32.62
2019-05-18T10:36:28.893Z,32.93
2019-05-18T10:37:28.847Z,33.62
2019-05-18T10:38:28.861Z,33.53
2019-05-18T10:39:28.842Z,32.46
2019-05-18T10:40:28.819Z,33.46
2019-05-18T10:41:28.802Z,33.46
2019-05-18T10:42:28.791Z,33.34
2019-05-18T10:43:28.797Z,33.44
2019-05-18T10:44:28.791Z,32.74
2019-05-18T10:45:28.768Z,32.94
2019-05-18T10:46:28.775Z,33.54
2019-05-18T10:47:28.741Z,33.56
2019-05-18T10:48:28.732Z,32.84
2019-05-18T10:49:28.757Z,33.74
2019-05-18T10:50:28.707Z,32.94
2019-05-18T10:51:40.664Z,32.74
2019-05-18T10:52:28.682Z,32.24
2019-05-18T10:53:29.250Z,32.35
2019-05-18T10:54:28.666Z,32.35
2019-05-18T10:55:28.663Z,32.54
2019-05-18T10:56:31.206Z,33.14
2019-05-18T10:57:28.630Z,32.32
2019-05-18T10:58:28.623Z,32.34
2019-05-18T10:59:28.610Z,31.12
2019-05-18T11:00:28.602Z,31.14
2019-05-18T11:01:28.594Z,31.04
2019-05-18T11:02:28.583Z,31.64
2019-05-18T11:03:37.074Z,31.24
2019-05-18T11:04:28.552Z,32.54
2019-05-18T11:05:28.538Z,32.23
2019-05-18T11:06:28.585Z,30.93
2019-05-18T11:07:29.138Z,30.73
2019-05-18T11:08:28.513Z,31.52
2019-05-18T11:09:28.502Z,29.43
2019-05-18T11:10:28.492Z,30.51
2019-05-18T11:11:28.478Z,30.91
2019-05-18T11:12:28.529Z,30.51
2019-05-18T11:13:28.465Z,31.21
2019-05-18T11:14:28.458Z,30.21
2019-05-18T11:15:28.437Z,30.02
2019-05-18T11:16:28.457Z,30.21
2019-05-18T11:17:28.408Z,30.91
2019-05-18T11:18:30.325Z,30.71
2019-05-18T11:19:28.395Z,30.31
2019-05-18T11:20:28.400Z,30.61
2019-05-18T11:21:28.371Z,31.21
2019-05-18T11:22:28.365Z,31.12
2019-05-18T11:23:41.470Z,31.31
2019-05-18T11:24:29.340Z,30.99
2019-05-18T11:25:28.321Z,31.18
2019-05-18T11:26:28.324Z,31.28
2019-05-18T11:27:28.344Z,30.87
2019-05-18T11:28:28.298Z,30.38
2019-05-18T11:29:28.291Z,30.18
2019-05-18T11:30:28.267Z,30.11
2019-05-18T11:31:28.254Z,30.41
2019-05-18T11:32:28.245Z,30.49
2019-05-18T11:33:28.249Z,30.18
2019-05-18T11:34:41.469Z,28.98
2019-05-18T11:35:29.282Z,30.07
2019-05-18T11:36:29.217Z,29.97
2019-05-18T11:38:38.058Z,30.27
2019-05-18T11:45:48.187Z,30.81
2019-05-18T11:55:48.079Z,30.08
2019-05-18T11:56:48.185Z,29.00
2019-05-18T11:57:48.053Z,30.41
2019-05-18T11:58:48.054Z,30.21
2019-05-18T11:59:48.078Z,30.79
2019-05-18T12:00:48.037Z,29.78
2019-05-18T12:01:48.011Z,29.48
2019-05-18T12:02:47.999Z,29.49
2019-05-18T12:03:47.984Z,28.80
2019-05-18T12:04:48.840Z,29.19
2019-05-18T12:05:48.007Z,28.81
2019-05-18T12:06:47.955Z,28.59
2019-05-18T12:07:47.945Z,28.80
2019-05-18T12:08:47.935Z,29.00
2019-05-18T12:09:47.918Z,29.01
2019-05-18T12:10:47.906Z,28.61
2019-05-18T12:11:57.462Z,29.21
2019-05-18T12:12:47.895Z,29.41
2019-05-18T12:13:47.875Z,30.60
2019-05-18T12:14:47.856Z,28.98
2019-05-18T12:15:47.915Z,28.89
2019-05-18T12:16:47.869Z,28.69
2019-05-18T12:17:47.850Z,28.48
2019-05-18T12:18:47.826Z,28.28
2019-05-18T12:19:55.291Z,29.18
2019-05-18T12:20:47.787Z,28.98
2019-05-18T12:21:47.821Z,29.08
2019-05-18T12:22:47.812Z,28.58
2019-05-18T12:23:47.763Z,28.68
2019-05-18T12:24:47.751Z,28.48
2019-05-18T12:25:50.672Z,28.88
2019-05-18T12:26:47.726Z,28.68
2019-05-18T12:27:47.776Z,28.68
2019-05-18T12:28:47.706Z,29.39
2019-05-18T12:29:47.687Z,29.90
2019-05-18T12:30:47.678Z,29.10
2019-05-18T12:31:47.672Z,28.50
2019-05-18T12:32:47.668Z,29.00
2019-05-18T12:33:47.643Z,28.19
2019-05-18T12:34:47.633Z,29.00
2019-05-18T12:35:47.624Z,27.89
2019-05-18T12:36:47.624Z,29.00
2019-05-18T12:37:47.635Z,27.09
2019-05-18T12:38:47.595Z,27.89
2019-05-18T12:39:47.573Z,28.30
2019-05-18T12:40:47.567Z,28.00
2019-05-18T12:41:47.550Z,28.19
2019-05-18T12:42:47.543Z,27.59
2019-05-18T12:43:47.536Z,28.58
2019-05-18T12:44:47.524Z,27.58
2019-05-18T12:45:47.518Z,27.58
2019-05-18T12:46:47.650Z,27.58
2019-05-18T12:47:47.492Z,28.08
2019-05-18T12:48:47.513Z,28.38
2019-05-18T12:49:47.461Z,28.37
2019-05-18T12:50:59.377Z,28.57
2019-05-18T12:51:47.445Z,29.17
2019-05-18T12:52:47.430Z,28.37
2019-05-18T12:53:47.422Z,27.37
2019-05-18T12:54:47.415Z,28.47
2019-05-18T12:55:47.400Z,28.36
2019-05-18T12:56:47.390Z,28.57
2019-05-18T12:57:47.380Z,28.16
2019-05-18T12:58:47.362Z,28.97
2019-05-18T12:59:47.413Z,29.06
2019-05-18T13:00:47.345Z,28.37
2019-05-18T13:01:47.328Z,29.06
2019-05-18T13:02:47.317Z,28.58
2019-05-18T13:03:47.316Z,28.78
2019-05-18T13:04:47.292Z,28.98
2019-05-18T13:05:47.290Z,28.98
2019-05-18T13:06:47.270Z,28.59
2019-05-18T13:07:47.269Z,28.89
2019-05-18T13:08:47.248Z,29.10
2019-05-18T13:09:47.236Z,28.58
2019-05-18T13:10:47.275Z,29.18